Decoded Metar for PAKV (KALTAG in AK, USA) (IATA:KAL) | Meteo·Mobile Aviation Weather
aviador You're here:

PAKV Decoded Metar

KALTAG in AK, USA
Report Time2018-09-21 02:53:00
UTC Time2018-09-21 03:43:32
Flight Rules vfr VFR
Wind050° at 03 kt
W.Decomp.*RWY 03: 3.0 kt HW 0.1 kt RCW
W.Rank050° ranks 2
Current wind is below 050° avg. (7.9)
Visibility9999 m
Phenomena:N/A
Clouds:Overcast 050 Hf
Expected CloudBase > 2,400 ft AGL from Temp-Dew spread
Ceiling5,000 ft
Temp12°C (ISA -3)
Dew Point06°C (67% RH)
AAT10.0°C
QNH1017 hPa
Density Alt-118 ft
Elevation200 ft
Report Wrong Elevation
Raw Report
PAKV 210253Z AUTO 05003KT 10SM OVC050 12/06 A3003 RMK AO2 SLP172
T01170056 58001 TSNO=

Extra information for PAKV:More info

Metar Taf Metar & Taf Last 4 Metars F.Rules Stats Wind Profile Meteogram Temp Stats Airport Information Weather charts Add Link Nearby VenuesMetar ALERT Operation Metar Decoded Social comments

AIRNAV info for PAKV